createdAt,value
2023-04-15T00:01:11.752Z,4.82
2023-04-15T00:03:40.289Z,4.86
2023-04-15T00:06:07.735Z,4.80
2023-04-15T00:08:34.972Z,4.77
2023-04-15T00:11:05.818Z,4.76
2023-04-15T00:13:34.167Z,4.73
2023-04-15T00:16:01.614Z,4.68
2023-04-15T00:18:30.035Z,4.67
2023-04-15T00:20:57.301Z,4.65
2023-04-15T00:23:24.637Z,4.70
2023-04-15T00:25:54.290Z,4.79
2023-04-15T00:28:21.650Z,4.67
2023-04-15T00:30:48.859Z,4.75
2023-04-15T00:33:19.299Z,4.74
2023-04-15T00:35:47.827Z,4.87
2023-04-15T00:38:15.038Z,4.79
2023-04-15T00:40:42.814Z,4.77
2023-04-15T00:43:10.178Z,4.75
2023-04-15T00:45:37.395Z,4.82
2023-04-15T00:48:04.921Z,4.84
2023-04-15T00:50:33.492Z,4.97
2023-04-15T00:53:00.636Z,4.84
2023-04-15T00:55:28.149Z,4.89
2023-04-15T00:57:55.509Z,5.00
2023-04-15T01:00:22.846Z,5.05
2023-04-15T01:02:50.949Z,5.17
2023-04-15T01:05:19.474Z,5.28
2023-04-15T01:07:47.914Z,5.24
2023-04-15T01:10:15.485Z,5.03
2023-04-15T01:12:43.368Z,5.08
2023-04-15T01:15:11.204Z,5.18
2023-04-15T01:17:39.331Z,5.30
2023-04-15T01:20:10.162Z,5.32
2023-04-15T01:22:39.015Z,5.33
2023-04-15T01:25:12.377Z,5.41
2023-04-15T01:27:40.975Z,5.48
2023-04-15T01:30:08.899Z,5.50
2023-04-15T01:32:36.319Z,5.57
2023-04-15T01:35:03.872Z,5.60
2023-04-15T01:37:31.042Z,5.53
2023-04-15T01:39:58.181Z,5.66
2023-04-15T01:42:25.690Z,5.65
2023-04-15T01:44:53.722Z,5.50
2023-04-15T01:47:20.938Z,5.59
2023-04-15T01:49:48.634Z,5.66
2023-04-15T01:52:15.802Z,5.67
2023-04-15T01:54:43.004Z,5.59
2023-04-15T01:57:12.394Z,5.59
2023-04-15T01:59:43.630Z,5.65
2023-04-15T02:02:11.317Z,5.69
2023-04-15T02:04:39.102Z,5.67
2023-04-15T02:07:08.226Z,5.69
2023-04-15T02:09:35.937Z,5.65
2023-04-15T02:12:03.372Z,5.72
2023-04-15T02:14:30.761Z,5.77
2023-04-15T02:16:58.285Z,5.64
2023-04-15T02:19:25.474Z,5.75
2023-04-15T02:21:52.840Z,5.80
2023-04-15T02:24:20.699Z,5.81
2023-04-15T02:26:47.853Z,5.79
2023-04-15T02:29:15.861Z,5.68
2023-04-15T02:31:43.973Z,5.68
2023-04-15T02:34:11.317Z,5.55
2023-04-15T02:36:40.428Z,5.53
2023-04-15T02:39:08.199Z,5.62
2023-04-15T02:41:35.531Z,5.57
2023-04-15T02:44:03.710Z,5.56
2023-04-15T02:46:31.454Z,5.63
2023-04-15T02:49:00.190Z,5.59
2023-04-15T02:51:31.221Z,5.63
2023-04-15T02:53:59.087Z,5.68
2023-04-15T02:56:27.354Z,5.67
2023-04-15T02:58:56.212Z,5.69
2023-04-15T03:01:24.133Z,5.73
2023-04-15T03:03:51.479Z,5.74
2023-04-15T03:06:18.747Z,5.82
2023-04-15T03:08:46.741Z,5.85
2023-04-15T03:11:15.119Z,5.86
2023-04-15T03:13:43.322Z,5.83
2023-04-15T03:16:11.676Z,5.82
2023-04-15T03:18:39.117Z,5.85
2023-04-15T03:21:07.414Z,5.84
2023-04-15T03:23:35.514Z,5.84
2023-04-15T03:26:03.278Z,5.90
2023-04-15T03:28:30.805Z,5.89
2023-04-15T03:30:58.847Z,5.83
2023-04-15T03:33:26.114Z,5.80
2023-04-15T03:35:53.349Z,5.77
2023-04-15T03:38:20.808Z,5.85
2023-04-15T03:40:48.001Z,5.76
2023-04-15T03:43:15.707Z,5.67
2023-04-15T03:45:43.151Z,5.74
2023-04-15T03:48:16.493Z,5.78
2023-04-15T03:50:46.098Z,5.82
2023-04-15T03:53:13.331Z,5.87
2023-04-15T03:55:40.626Z,5.93
2023-04-15T03:58:08.504Z,5.96
2023-04-15T04:00:35.650Z,5.95
2023-04-15T04:03:03.437Z,5.96
2023-04-15T04:05:30.965Z,5.98
2023-04-15T04:07:58.100Z,5.78
2023-04-15T04:10:26.307Z,5.82
2023-04-15T04:12:53.608Z,5.90
2023-04-15T04:15:21.056Z,5.90
2023-04-15T04:17:48.552Z,5.93
2023-04-15T04:20:17.277Z,5.79
2023-04-15T04:22:44.509Z,5.76
2023-04-15T04:25:12.006Z,5.78
2023-04-15T04:27:39.257Z,6.00
2023-04-15T04:30:07.339Z,6.08
2023-04-15T04:32:36.063Z,6.06
2023-04-15T04:35:03.881Z,6.17
2023-04-15T04:37:31.284Z,6.09
2023-04-15T04:39:58.978Z,6.17
2023-04-15T04:42:26.106Z,6.19
2023-04-15T04:44:54.257Z,6.27
2023-04-15T04:47:22.087Z,6.34
2023-04-15T04:49:50.537Z,6.41
2023-04-15T04:52:17.725Z,6.42
2023-04-15T04:54:45.155Z,6.47
2023-04-15T04:57:13.594Z,6.57
2023-04-15T04:59:40.930Z,6.64
2023-04-15T05:02:08.628Z,6.64
2023-04-15T05:04:36.974Z,6.53
2023-04-15T05:07:04.161Z,6.75
2023-04-15T05:09:32.535Z,6.66
2023-04-15T05:11:59.692Z,6.62
2023-04-15T05:14:28.106Z,6.74
2023-04-15T05:16:55.588Z,6.61
2023-04-15T05:19:22.771Z,6.74
2023-04-15T05:21:49.897Z,6.73
2023-04-15T05:24:18.175Z,6.89
2023-04-15T05:26:45.535Z,7.07
2023-04-15T05:29:12.686Z,7.09
2023-04-15T05:31:40.502Z,7.09
2023-04-15T05:34:07.711Z,7.04
2023-04-15T05:36:34.897Z,6.95
2023-04-15T05:39:02.922Z,6.93
2023-04-15T05:41:30.295Z,7.09
2023-04-15T05:43:57.503Z,7.23
2023-04-15T05:46:25.240Z,7.37
2023-04-15T05:48:54.237Z,7.66
2023-04-15T05:51:21.886Z,7.90
2023-04-15T05:53:49.366Z,8.23
2023-04-15T05:56:16.543Z,8.25
2023-04-15T05:58:43.727Z,8.34
2023-04-15T06:01:11.751Z,8.40
2023-04-15T06:03:39.722Z,9.03
2023-04-15T06:06:07.726Z,9.66
2023-04-15T06:08:34.928Z,9.92
2023-04-15T06:11:02.442Z,9.89
2023-04-15T06:13:29.565Z,9.76
2023-04-15T06:15:56.757Z,9.65
2023-04-15T06:18:24.280Z,9.53
2023-04-15T06:20:51.895Z,9.13
2023-04-15T06:23:19.057Z,9.19
2023-04-15T06:25:46.662Z,9.53
2023-04-15T06:28:13.834Z,9.60
2023-04-15T06:30:41.185Z,9.74
2023-04-15T06:33:08.705Z,9.63
2023-04-15T06:35:35.913Z,10.03
2023-04-15T06:38:03.072Z,9.96
2023-04-15T06:40:30.603Z,9.91
2023-04-15T06:42:57.778Z,10.04
2023-04-15T06:45:24.987Z,10.33
2023-04-15T06:47:52.730Z,10.45
2023-04-15T06:50:19.991Z,10.34
2023-04-15T06:52:47.119Z,10.12
2023-04-15T06:55:14.959Z,10.26
2023-04-15T06:57:42.181Z,10.46
2023-04-15T07:00:12.076Z,10.92
2023-04-15T07:02:39.735Z,11.10
2023-04-15T07:05:07.648Z,11.54
2023-04-15T07:07:35.111Z,11.58
2023-04-15T07:10:02.718Z,11.54
2023-04-15T07:12:29.908Z,11.43
2023-04-15T07:14:57.107Z,11.43
2023-04-15T07:17:24.679Z,11.23
2023-04-15T07:19:52.110Z,11.35
2023-04-15T07:22:19.265Z,11.71
2023-04-15T07:24:46.731Z,12.07
2023-04-15T07:27:13.906Z,12.04
2023-04-15T07:29:41.394Z,12.06
2023-04-15T07:32:10.481Z,12.03
2023-04-15T07:34:38.118Z,12.03
2023-04-15T07:37:05.246Z,12.10
2023-04-15T07:39:32.718Z,12.10
2023-04-15T07:41:59.899Z,12.39
2023-04-15T07:44:27.380Z,12.40
2023-04-15T07:46:54.872Z,12.05
2023-04-15T07:49:22.055Z,12.22
2023-04-15T07:51:49.310Z,11.99
2023-04-15T07:54:16.868Z,11.89
2023-04-15T07:56:44.005Z,11.71
2023-04-15T07:59:11.658Z,11.35
2023-04-15T08:01:39.146Z,11.32
2023-04-15T08:04:06.736Z,11.64
2023-04-15T08:06:34.085Z,11.69
2023-04-15T08:09:01.987Z,11.74
2023-04-15T08:11:29.896Z,11.75
2023-04-15T08:13:57.078Z,12.06
2023-04-15T08:16:25.569Z,12.03
2023-04-15T08:18:55.382Z,12.45
2023-04-15T08:21:22.955Z,12.85
2023-04-15T08:23:51.002Z,12.78
2023-04-15T08:26:18.920Z,12.85
2023-04-15T08:28:46.352Z,12.86
2023-04-15T08:31:16.993Z,12.75
2023-04-15T08:33:44.456Z,12.89
2023-04-15T08:36:11.690Z,12.66
2023-04-15T08:38:38.886Z,12.66
2023-04-15T08:41:12.975Z,12.76
2023-04-15T08:43:43.008Z,12.99
2023-04-15T08:46:10.778Z,12.88
2023-04-15T08:48:38.056Z,12.99
2023-04-15T08:51:05.882Z,13.22
2023-04-15T08:53:33.796Z,13.18
2023-04-15T08:56:01.749Z,12.57
2023-04-15T08:58:29.038Z,12.36
2023-04-15T09:00:56.795Z,12.02
2023-04-15T09:03:24.898Z,11.99
2023-04-15T09:05:53.212Z,11.97
2023-04-15T09:08:21.105Z,12.11
2023-04-15T09:10:48.373Z,12.43
2023-04-15T09:13:15.837Z,12.77
2023-04-15T09:15:44.025Z,13.01
2023-04-15T09:18:14.415Z,13.32
2023-04-15T09:20:42.620Z,13.46
2023-04-15T09:23:14.175Z,13.63
2023-04-15T09:25:44.579Z,13.75
2023-04-15T09:28:12.065Z,13.88
2023-04-15T09:30:39.320Z,13.88
2023-04-15T09:33:10.897Z,13.80
2023-04-15T09:35:38.474Z,13.71
2023-04-15T09:38:07.288Z,13.19
2023-04-15T09:40:38.070Z,12.94
2023-04-15T09:43:06.250Z,12.77
2023-04-15T09:45:34.079Z,12.13
2023-04-15T09:48:21.555Z,11.96
2023-04-15T09:50:49.485Z,11.71
2023-04-15T09:53:17.927Z,11.99
2023-04-15T09:55:49.868Z,12.19
2023-04-15T09:58:24.254Z,12.34
2023-04-15T10:00:51.987Z,12.58
2023-04-15T10:03:21.186Z,12.53
2023-04-15T10:05:50.537Z,12.56
2023-04-15T10:08:18.948Z,12.99
2023-04-15T10:10:47.381Z,13.30
2023-04-15T10:13:16.458Z,12.91
2023-04-15T10:15:44.681Z,12.43
2023-04-15T10:18:12.548Z,12.32
2023-04-15T10:20:39.842Z,12.33
2023-04-15T10:23:09.940Z,12.36
2023-04-15T10:25:38.927Z,12.51
2023-04-15T10:28:07.310Z,12.27
2023-04-15T10:30:34.706Z,12.29
2023-04-15T10:33:02.344Z,12.43
2023-04-15T10:35:33.877Z,12.37
2023-04-15T10:38:01.173Z,12.32
2023-04-15T10:40:32.158Z,12.11
2023-04-15T10:43:00.269Z,12.01
2023-04-15T10:45:34.719Z,11.83
2023-04-15T10:48:03.733Z,11.69
2023-04-15T10:50:32.593Z,11.51
2023-04-15T10:53:00.310Z,11.63
2023-04-15T10:55:30.277Z,11.96
2023-04-15T10:58:03.572Z,11.99
2023-04-15T11:00:32.274Z,12.13
2023-04-15T11:03:07.049Z,12.25
2023-04-15T11:05:53.137Z,12.45
2023-04-15T11:08:20.594Z,12.60
2023-04-15T11:10:48.071Z,12.70
2023-04-15T11:13:16.970Z,12.64
2023-04-15T11:15:47.118Z,12.40
2023-04-15T11:18:19.033Z,12.40
2023-04-15T11:20:52.570Z,12.85
2023-04-15T11:23:20.574Z,12.91
2023-04-15T11:25:48.749Z,13.04
2023-04-15T11:28:16.124Z,12.78
2023-04-15T11:30:43.790Z,12.38
2023-04-15T11:33:12.376Z,12.16
2023-04-15T11:35:41.324Z,12.11
2023-04-15T11:38:10.067Z,11.74
2023-04-15T11:40:38.250Z,11.54
2023-04-15T11:43:09.061Z,11.78
2023-04-15T11:45:37.180Z,12.27
2023-04-15T11:48:07.807Z,12.59
2023-04-15T11:50:36.095Z,12.92
2023-04-15T11:53:06.873Z,12.81
2023-04-15T11:55:46.284Z,12.67
2023-04-15T11:58:18.178Z,12.72
2023-04-15T12:00:55.243Z,12.80
2023-04-15T12:03:24.428Z,12.67
2023-04-15T12:06:07.250Z,12.56
2023-04-15T12:08:48.422Z,12.06
2023-04-15T12:11:16.016Z,11.83
2023-04-15T12:13:44.210Z,12.12
2023-04-15T12:16:11.553Z,12.77
2023-04-15T12:18:38.972Z,13.14
2023-04-15T12:21:10.085Z,13.17
2023-04-15T12:23:37.961Z,13.57
2023-04-15T12:26:05.971Z,13.83
2023-04-15T12:28:37.049Z,13.64
2023-04-15T12:31:08.662Z,13.26
2023-04-15T12:33:36.248Z,13.26
2023-04-15T12:36:03.727Z,13.32
2023-04-15T12:38:31.764Z,13.49
2023-04-15T12:40:59.450Z,13.14
2023-04-15T12:43:27.302Z,13.39
2023-04-15T12:45:54.552Z,13.59
2023-04-15T12:48:22.134Z,13.53
2023-04-15T12:50:49.377Z,13.48
2023-04-15T12:53:16.934Z,13.12
2023-04-15T12:55:44.968Z,12.99
2023-04-15T12:58:12.212Z,13.00
2023-04-15T13:00:39.486Z,12.97
2023-04-15T13:03:07.398Z,12.95
2023-04-15T13:05:37.007Z,12.59
2023-04-15T13:08:04.326Z,12.03
2023-04-15T13:10:32.278Z,11.86
2023-04-15T13:12:59.518Z,11.46
2023-04-15T13:15:26.737Z,11.28
2023-04-15T13:17:54.567Z,11.50
2023-04-15T13:20:22.114Z,11.97
2023-04-15T13:22:49.322Z,12.22
2023-04-15T13:25:18.328Z,12.41
2023-04-15T13:27:45.567Z,12.98
2023-04-15T13:30:13.726Z,13.45
2023-04-15T13:32:41.330Z,13.55
2023-04-15T13:35:08.715Z,14.18
2023-04-15T13:37:35.952Z,15.23
2023-04-15T13:40:03.705Z,15.89
2023-04-15T13:42:30.987Z,15.99
2023-04-15T13:44:58.265Z,15.39
2023-04-15T13:47:26.259Z,15.12
2023-04-15T13:49:56.137Z,14.86
2023-04-15T13:52:23.557Z,14.78
2023-04-15T13:55:08.779Z,14.84
2023-04-15T13:57:39.119Z,14.95
2023-04-15T14:00:07.496Z,14.96
2023-04-15T14:02:35.968Z,15.17
2023-04-15T14:05:03.586Z,14.73
2023-04-15T14:07:31.128Z,14.67
2023-04-15T14:09:58.645Z,14.58
2023-04-15T14:12:25.891Z,14.53
2023-04-15T14:14:53.234Z,14.19
2023-04-15T14:17:21.122Z,14.12
2023-04-15T14:19:48.343Z,13.89
2023-04-15T14:22:15.818Z,13.84
2023-04-15T14:24:43.350Z,13.66
2023-04-15T14:27:12.398Z,13.63
2023-04-15T14:29:39.668Z,13.73
2023-04-15T14:32:11.969Z,13.76
2023-04-15T14:34:40.366Z,13.63
2023-04-15T14:37:07.974Z,13.77
2023-04-15T14:39:35.315Z,13.76
2023-04-15T14:42:02.544Z,13.82
2023-04-15T14:47:02.213Z,13.61
2023-04-15T14:49:30.498Z,13.45
2023-04-15T14:51:57.757Z,12.98
2023-04-15T14:54:25.017Z,12.81
2023-04-15T14:56:52.586Z,12.82
2023-04-15T14:59:19.816Z,12.65
2023-04-15T15:01:47.057Z,12.30
2023-04-15T15:04:15.077Z,12.19
2023-04-15T15:06:42.588Z,12.08
2023-04-15T15:09:09.809Z,12.00
2023-04-15T15:11:37.367Z,11.82
2023-04-15T15:14:04.651Z,11.70
2023-04-15T15:16:31.985Z,11.84
2023-04-15T15:18:59.616Z,11.89
2023-04-15T15:21:27.157Z,11.93
2023-04-15T15:23:54.708Z,11.98
2023-04-15T15:26:23.200Z,11.59
2023-04-15T15:28:50.836Z,11.34
2023-04-15T15:31:18.094Z,11.05
2023-04-15T15:33:45.763Z,10.88
2023-04-15T15:36:13.263Z,10.54
2023-04-15T15:38:41.050Z,10.59
2023-04-15T15:41:08.575Z,10.52
2023-04-15T15:43:35.837Z,10.72
2023-04-15T15:46:04.802Z,10.66
2023-04-15T15:48:32.418Z,10.86
2023-04-15T15:50:59.645Z,10.99
2023-04-15T15:53:27.031Z,11.11
2023-04-15T15:55:54.553Z,11.00
2023-04-15T15:58:21.838Z,11.21
2023-04-15T16:00:49.082Z,11.17
2023-04-15T16:03:16.789Z,11.14
2023-04-15T16:05:44.232Z,10.94
2023-04-15T16:08:11.515Z,10.96
2023-04-15T16:10:39.349Z,10.86
2023-04-15T16:13:06.486Z,10.84
2023-04-15T16:15:34.397Z,10.96
2023-04-15T16:18:01.972Z,11.03
2023-04-15T16:20:29.183Z,11.14
2023-04-15T16:22:57.091Z,11.00
2023-04-15T16:25:24.907Z,10.91
2023-04-15T16:28:03.067Z,11.00
2023-04-15T16:30:35.312Z,10.82
2023-04-15T16:33:02.678Z,10.78
2023-04-15T16:35:29.913Z,10.63
2023-04-15T16:37:57.687Z,10.50
2023-04-15T16:40:25.316Z,10.56
2023-04-15T16:42:52.588Z,10.40
2023-04-15T16:45:21.446Z,10.30
2023-04-15T16:47:50.075Z,10.21
2023-04-15T16:50:17.229Z,10.24
2023-04-15T16:52:44.867Z,10.12
2023-04-15T16:55:12.092Z,10.07
2023-04-15T16:58:02.669Z,9.93
2023-04-15T17:00:28.057Z,9.83
2023-04-15T17:02:55.850Z,9.76
2023-04-15T17:05:23.173Z,9.72
2023-04-15T17:07:51.037Z,9.71
2023-04-15T17:10:18.448Z,9.63
2023-04-15T17:12:45.819Z,9.41
2023-04-15T17:15:13.338Z,9.35
2023-04-15T17:17:40.608Z,9.26
2023-04-15T17:20:08.071Z,9.18
2023-04-15T17:22:36.085Z,9.13
2023-04-15T17:25:04.592Z,9.09
2023-04-15T17:27:31.870Z,9.01
2023-04-15T17:29:59.592Z,9.02
2023-04-15T17:32:31.866Z,9.04
2023-04-15T17:34:59.842Z,9.02
2023-04-15T17:37:27.098Z,8.97
2023-04-15T17:39:54.266Z,8.80
2023-04-15T17:42:22.936Z,8.75
2023-04-15T17:44:50.203Z,8.67
2023-04-15T17:47:17.469Z,8.58
2023-04-15T17:49:45.288Z,8.48
2023-04-15T17:52:12.614Z,8.37
2023-04-15T17:54:39.927Z,8.29
2023-04-15T17:57:07.528Z,8.22
2023-04-15T17:59:34.813Z,8.14
2023-04-15T18:02:02.042Z,8.05
2023-04-15T18:04:29.913Z,7.92
2023-04-15T18:06:57.208Z,7.95
2023-04-15T18:09:24.465Z,7.94
2023-04-15T18:11:52.027Z,7.89
2023-04-15T18:14:33.061Z,7.87
2023-04-15T18:17:02.277Z,7.86
2023-04-15T18:19:30.089Z,7.75
2023-04-15T18:21:57.976Z,7.67
2023-04-15T18:24:25.793Z,7.61
2023-04-15T18:26:53.254Z,7.63
2023-04-15T18:29:20.529Z,7.55
2023-04-15T18:31:48.182Z,7.50
2023-04-15T18:34:15.720Z,7.48
2023-04-15T18:36:42.949Z,7.41
2023-04-15T18:39:10.571Z,7.40
2023-04-15T18:41:37.796Z,7.38
2023-04-15T18:44:05.052Z,7.35
2023-04-15T18:46:32.542Z,7.25
2023-04-15T18:48:59.791Z,7.07
2023-04-15T18:51:28.093Z,7.07
2023-04-15T18:53:55.740Z,6.96
2023-04-15T18:56:23.019Z,6.89
2023-04-15T18:59:09.209Z,6.87
2023-04-15T19:01:38.170Z,6.75
2023-04-15T19:04:05.521Z,6.71
2023-04-15T19:06:33.712Z,6.69
2023-04-15T19:09:01.284Z,6.62
2023-04-15T19:11:28.504Z,6.55
2023-04-15T19:13:57.313Z,6.51
2023-04-15T19:16:24.942Z,6.50
2023-04-15T19:18:52.297Z,6.42
2023-04-15T19:21:19.576Z,6.41
2023-04-15T19:23:48.180Z,6.46
2023-04-15T19:26:15.596Z,6.45
2023-04-15T19:28:42.827Z,6.46
2023-04-15T19:31:10.317Z,6.46
2023-04-15T19:33:37.543Z,6.41
2023-04-15T19:36:05.333Z,6.41
2023-04-15T19:38:34.988Z,6.46
2023-04-15T19:41:02.271Z,6.50
2023-04-15T19:43:30.706Z,6.53
2023-04-15T19:45:58.712Z,6.53
2023-04-15T19:48:26.134Z,6.59
2023-04-15T19:50:53.471Z,6.53
2023-04-15T19:53:21.035Z,6.59
2023-04-15T19:55:48.891Z,6.53
2023-04-15T19:58:16.629Z,6.56
2023-04-15T20:00:44.173Z,6.58
2023-04-15T20:03:12.299Z,6.63
2023-04-15T20:05:39.682Z,6.68
2023-04-15T20:08:06.978Z,6.72
2023-04-15T20:10:35.349Z,6.79
2023-04-15T20:13:02.540Z,6.85
2023-04-15T20:15:29.833Z,6.88
2023-04-15T20:17:57.428Z,6.86
2023-04-15T20:20:24.766Z,6.86
2023-04-15T20:22:53.107Z,6.89
2023-04-15T20:25:20.890Z,6.86
2023-04-15T20:27:48.158Z,6.86
2023-04-15T20:30:15.655Z,6.86
2023-04-15T20:32:43.325Z,6.86
2023-04-15T20:35:10.782Z,6.87
2023-04-15T20:37:38.082Z,6.90
2023-04-15T20:40:06.144Z,6.90
2023-04-15T20:42:36.319Z,6.90
2023-04-15T20:45:03.917Z,6.99
2023-04-15T20:47:31.523Z,7.05
2023-04-15T20:49:58.833Z,6.95
2023-04-15T20:52:26.206Z,6.97
2023-04-15T20:54:53.738Z,6.93
2023-04-15T20:57:21.035Z,6.96
2023-04-15T20:59:48.322Z,6.90
2023-04-15T21:02:16.098Z,6.99
2023-04-15T21:04:43.442Z,7.00
2023-04-15T21:07:10.749Z,7.01
2023-04-15T21:09:41.334Z,6.93
2023-04-15T21:12:09.187Z,6.97
2023-04-15T21:14:37.027Z,7.00
2023-04-15T21:17:10.606Z,7.04
2023-04-15T21:19:38.717Z,6.95
2023-04-15T21:22:06.342Z,6.93
2023-04-15T21:24:33.954Z,6.91
2023-04-15T21:27:02.019Z,6.88
2023-04-15T21:29:29.719Z,6.85
2023-04-15T21:31:57.156Z,6.77
2023-04-15T21:34:24.464Z,6.79
2023-04-15T21:36:52.855Z,6.65
2023-04-15T21:39:20.503Z,6.63
2023-04-15T21:41:47.780Z,6.56
2023-04-15T21:44:15.442Z,6.44
2023-04-15T21:46:46.048Z,6.49
2023-04-15T21:49:13.715Z,6.50
2023-04-15T21:51:41.172Z,6.51
2023-04-15T21:54:08.333Z,6.52
2023-04-15T21:56:35.633Z,6.66
2023-04-15T21:59:03.083Z,6.70
2023-04-15T22:01:30.466Z,6.78
2023-04-15T22:03:58.179Z,6.86
2023-04-15T22:06:25.418Z,6.81
2023-04-15T22:08:56.920Z,6.63
2023-04-15T22:11:27.478Z,6.52
2023-04-15T22:13:55.622Z,6.54
2023-04-15T22:16:22.946Z,6.61
2023-04-15T22:18:51.789Z,6.62
2023-04-15T22:21:19.112Z,6.77
2023-04-15T22:23:47.421Z,6.70
2023-04-15T22:26:15.120Z,6.71
2023-04-15T22:28:42.460Z,6.76
2023-04-15T22:31:09.961Z,6.63
2023-04-15T22:33:38.794Z,6.68
2023-04-15T22:36:07.354Z,6.68
2023-04-15T22:38:35.715Z,6.66
2023-04-15T22:41:03.189Z,6.61
2023-04-15T22:43:30.507Z,6.72
2023-04-15T22:45:57.833Z,6.77
2023-04-15T22:48:25.387Z,6.76
2023-04-15T22:50:52.699Z,6.73
2023-04-15T22:53:20.139Z,6.75
2023-04-15T22:55:47.866Z,6.82
2023-04-15T22:58:15.651Z,6.80
2023-04-15T23:00:42.885Z,6.91
2023-04-15T23:03:10.996Z,7.02
2023-04-15T23:05:40.087Z,6.93
2023-04-15T23:08:07.717Z,6.87
2023-04-15T23:10:35.523Z,6.91
2023-04-15T23:13:02.775Z,6.84
2023-04-15T23:15:30.022Z,6.85
2023-04-15T23:17:57.588Z,6.86
2023-04-15T23:20:25.027Z,6.87
2023-04-15T23:22:52.283Z,6.88
2023-04-15T23:25:22.269Z,6.88
2023-04-15T23:27:51.037Z,6.83
2023-04-15T23:30:18.750Z,6.64
2023-04-15T23:32:46.394Z,6.48
2023-04-15T23:35:13.637Z,6.42
2023-04-15T23:37:40.846Z,6.35
2023-04-15T23:40:08.518Z,6.33
2023-04-15T23:42:35.696Z,6.42
2023-04-15T23:45:02.853Z,6.46
2023-04-15T23:47:30.451Z,6.50
2023-04-15T23:49:57.820Z,6.47
2023-04-15T23:52:25.130Z,6.50
2023-04-15T23:54:55.094Z,6.48
2023-04-15T23:57:22.309Z,6.44
2023-04-15T23:59:49.556Z,6.43
